メインページ
METAR-TAF:

METAR-TAF

空港 :

マニラ, フィリピン

ニノイ・アキノ国際空港

緯度: 14-31N, 経度: 121-00E, 海抜: 14m

現時点の気象観測

当レポートは1時間4分前の20:00(UTC)に作成
無風
気温 26°C
湿度 74%
気圧 1014 hPa
視程10km以上
高度2300ftの雲はほとんどない

METAR: RPLL 292000Z 00000KT 9999 FEW023 26/21 Q1014 NOSIG RMK A2994

時間: 05:04 (21:04 UTC)

予報

当レポートは4時間4分前の17:00(UTC)に作成
予報は29日の 18時(UTC)から 30日の 24時(UTC)まで有効
東/南東の風 8kt
視程10km以上
高度2500ftの雲はほとんどない
高度10000ftの雲は散在している
29日の 18時(UTC)から 29日の 24時(UTC)まで一時的に
の風 4kt
高度2300ftの雲は散在している
高度10000ftの千切れ雲あり
30日の 06時(UTC)から 30日の 12時(UTC)まで一時的に
東/南東の風 10kt
高度2500ftの雲はほとんどない
高度10000ftの千切れ雲あり

TAF: RPLL 291700Z 2918/3024 11008KT 9999 FEW025 SCT100 TX33/3005Z TN25/2921 TEMPO 2918/2924 10004KT SCT023 BKN100 TEMPO 3006/3012 12010KT FEW025 BKN100

4,000以上の空港の気象観測と天気予報(METAR報とTAF報)

利用可能な観測所は地図上に黄色い丸と赤い丸で示す。

丸の上にカーソルを重ねると観測所名を参照できる。

次にクリックすると気象観測と天気予報を参照できる。

マップの切り替え:黒色「×」印の緑ボタンをクリックして拡大、「-」印の緑ボタンをクリックして縮小、緑色の三角印をクリックして隣りの地図に切り替え


METAR-TAF: